Impacts METAR Board
IDs:

KPHX - Phoenix/Sky Harbor, AZ, US

Updated at: 0000 UTC 17 Jul 2019
Potential Impact None Slight Moderate High
Time 16/12Z 16/13Z 16/14Z 16/15Z 16/16Z 16/17Z 16/18Z 16/19Z 16/20Z 16/21Z 16/22Z 16/23Z 17/00Z
Temp91 90 91 92 97 102 105 110 112 113 115 113 113
Dewpt55 56 55 51 42 45 42 40 37 33 38 36 38
Altim29.73 29.74 29.77 29.78 29.79 29.80 29.80 29.79 29.76 29.74 29.72 29.70 29.68
VIS10 10 10 10 10 10 10 10 10 10 10 10 10
CIG-- -- 160 -- -- -- -- -- -- -- -- -- --
CoverSCTSCTBKNSCTSCTFEWFEWFEWFEWSCTSCTSCTFEW
FltCatVFRVFRVFRVFRVFRVFRVFRVFRVFRVFRVFRVFRVFR
WX--------------------------
WDir120120801001009000220270270290270
WSpd6 4 6 7 5 4 0 5 5 12 14 12 14
WGst-- -- -- -- -- -- -- -- -- 19 19 21 24
Raw hourly METARs
KPHX 161151Z 12006KT 10SM SCT160 SCT180 33/13 A2973 RMK AO2 SLP043 T03280128 10394 20328 53006
KPHX 161251Z 12004KT 10SM SCT130 SCT160 SCT180 32/13 A2974 RMK AO2 SLP049 T03220133
KPHX 161351Z 08006KT 10SM SCT130 BKN160 BKN200 33/13 A2977 RMK AO2 SLP056 T03280128
KPHX 161451Z 10007KT 10SM FEW130 SCT160 SCT200 33/11 A2978 RMK AO2 SLP061 T03330106 51017
KPHX 161551Z 10005KT 10SM FEW130 FEW160 SCT200 36/06 A2979 RMK AO2 SLP065 T03610056
KPHX 161651Z 09004KT 10SM FEW160 FEW200 FEW250 39/07 A2980 RMK AO2 SLP067 T03890072
KPHX 161751Z 00000KT 10SM FEW160 FEW200 FEW250 41/06 A2980 RMK AO2 SLP065 T04060056 10411 20317 50006
KPHX 161851Z VRB05KT 10SM FEW090 FEW150 43/04 A2979 RMK AO2 SLP061 T04330044
KPHX 161951Z 22005KT 10SM FEW090 FEW150 FEW190 44/03 A2976 RMK AO2 SLP053 T04440028
KPHX 162051Z 27012G19KT 10SM FEW090 FEW150 SCT190 45/01 A2974 RMK AO2 SLP046 T04500006 58018
KPHX 162151Z 27014G19KT 10SM FEW090 FEW150 SCT190 46/03 A2972 RMK AO2 SLP037 T04610033
KPHX 162251Z 29012G21KT 10SM FEW090 FEW150 SCT190 45/02 A2970 RMK AO2 SLP032 T04500022
KPHX 170001Z 27014G24KT 10SM FEW090 FEW160 FEW250 45/03 A2968 RMK AO2 WSHFT 2341 T04500033



Page loaded:  00:20 UTC  |   05:20 PM Pacific  |   06:20 PM Mountain  |   07:20 PM Central  |   08:20 PM Eastern

 

ADVISORIES

FORECASTS

FORECASTS

OBSERVATIONS

USER TOOLS

ABOUT US